sensor_id;sensor_type;location;lat;lon;timestamp;P1;durP1;ratioP1;P2;durP2;ratioP2
13847;SDS011;6994;49.752;6.094;2022-12-22T00:02:18;1.92;;;0.57;;
13847;SDS011;6994;49.752;6.094;2022-12-22T00:05:24;1.55;;;0.40;;
13847;SDS011;6994;49.752;6.094;2022-12-22T00:07:57;1.00;;;0.40;;
13847;SDS011;6994;49.752;6.094;2022-12-22T00:10:42;0.65;;;0.50;;
13847;SDS011;6994;49.752;6.094;2022-12-22T00:13:27;0.40;;;0.30;;
13847;SDS011;6994;49.752;6.094;2022-12-22T00:16:12;0.70;;;0.60;;
13847;SDS011;6994;49.752;6.094;2022-12-22T00:18:58;0.45;;;0.25;;
13847;SDS011;6994;49.752;6.094;2022-12-22T00:21:43;1.10;;;0.50;;
13847;SDS011;6994;49.752;6.094;2022-12-22T00:24:28;0.30;;;0.30;;
13847;SDS011;6994;49.752;6.094;2022-12-22T00:27:15;0.88;;;0.40;;
13847;SDS011;6994;49.752;6.094;2022-12-22T00:30:02;0.32;;;0.30;;
13847;SDS011;6994;49.752;6.094;2022-12-22T00:32:47;0.95;;;0.50;;
13847;SDS011;6994;49.752;6.094;2022-12-22T00:35:33;0.57;;;0.50;;
13847;SDS011;6994;49.752;6.094;2022-12-22T00:38:19;0.50;;;0.30;;
13847;SDS011;6994;49.752;6.094;2022-12-22T00:41:03;0.80;;;0.43;;
13847;SDS011;6994;49.752;6.094;2022-12-22T00:43:48;1.75;;;0.20;;
13847;SDS011;6994;49.752;6.094;2022-12-22T00:46:35;1.85;;;0.30;;
13847;SDS011;6994;49.752;6.094;2022-12-22T00:49:21;0.73;;;0.40;;
13847;SDS011;6994;49.752;6.094;2022-12-22T00:52:05;0.20;;;0.17;;
13847;SDS011;6994;49.752;6.094;2022-12-22T00:54:50;0.40;;;0.35;;
13847;SDS011;6994;49.752;6.094;2022-12-22T00:57:36;0.22;;;0.20;;
13847;SDS011;6994;49.752;6.094;2022-12-22T01:00:22;0.65;;;0.60;;
13847;SDS011;6994;49.752;6.094;2022-12-22T01:03:09;0.10;;;0.10;;
13847;SDS011;6994;49.752;6.094;2022-12-22T01:05:53;0.20;;;0.20;;
13847;SDS011;6994;49.752;6.094;2022-12-22T01:08:38;0.10;;;0.10;;
13847;SDS011;6994;49.752;6.094;2022-12-22T01:11:24;0.30;;;0.20;;
13847;SDS011;6994;49.752;6.094;2022-12-22T01:14:12;1.58;;;0.37;;
13847;SDS011;6994;49.752;6.094;2022-12-22T01:16:55;0.32;;;0.30;;
13847;SDS011;6994;49.752;6.094;2022-12-22T01:19:40;1.30;;;0.60;;
13847;SDS011;6994;49.752;6.094;2022-12-22T01:22:25;0.30;;;0.25;;
13847;SDS011;6994;49.752;6.094;2022-12-22T01:25:11;0.77;;;0.40;;
13847;SDS011;6994;49.752;6.094;2022-12-22T01:27:56;0.60;;;0.40;;
13847;SDS011;6994;49.752;6.094;2022-12-22T01:30:41;0.55;;;0.20;;
13847;SDS011;6994;49.752;6.094;2022-12-22T01:33:27;2.30;;;0.60;;
13847;SDS011;6994;49.752;6.094;2022-12-22T01:36:12;1.08;;;0.40;;
13847;SDS011;6994;49.752;6.094;2022-12-22T01:38:58;0.35;;;0.35;;
13847;SDS011;6994;49.752;6.094;2022-12-22T01:41:43;1.87;;;0.60;;
13847;SDS011;6994;49.752;6.094;2022-12-22T01:44:28;2.17;;;0.57;;
13847;SDS011;6994;49.752;6.094;2022-12-22T01:47:29;2.10;;;0.55;;
13847;SDS011;6994;49.752;6.094;2022-12-22T01:50:28;2.65;;;0.62;;
13847;SDS011;6994;49.752;6.094;2022-12-22T01:53:13;1.90;;;0.70;;
13847;SDS011;6994;49.752;6.094;2022-12-22T01:55:56;2.90;;;0.77;;
13847;SDS011;6994;49.752;6.094;2022-12-22T01:58:43;2.20;;;0.70;;
13847;SDS011;6994;49.752;6.094;2022-12-22T02:01:27;1.90;;;0.68;;
13847;SDS011;6994;49.752;6.094;2022-12-22T02:04:13;4.30;;;1.10;;
13847;SDS011;6994;49.752;6.094;2022-12-22T02:07:00;2.22;;;1.20;;
13847;SDS011;6994;49.752;6.094;2022-12-22T02:09:48;4.55;;;0.65;;
13847;SDS011;6994;49.752;6.094;2022-12-22T02:12:52;1.17;;;0.50;;
13847;SDS011;6994;49.752;6.094;2022-12-22T02:15:43;2.25;;;1.00;;
13847;SDS011;6994;49.752;6.094;2022-12-22T02:18:38;3.55;;;0.85;;
13847;SDS011;6994;49.752;6.094;2022-12-22T02:21:21;2.22;;;0.60;;
13847;SDS011;6994;49.752;6.094;2022-12-22T02:24:24;2.75;;;1.40;;
13847;SDS011;6994;49.752;6.094;2022-12-22T02:27:24;3.30;;;0.85;;
13847;SDS011;6994;49.752;6.094;2022-12-22T02:30:09;3.53;;;1.42;;
13847;SDS011;6994;49.752;6.094;2022-12-22T02:32:55;2.40;;;0.70;;
13847;SDS011;6994;49.752;6.094;2022-12-22T02:38:50;5.35;;;0.70;;
13847;SDS011;6994;49.752;6.094;2022-12-22T02:47:49;0.40;;;0.30;;
13847;SDS011;6994;49.752;6.094;2022-12-22T02:50:45;3.10;;;0.68;;
13847;SDS011;6994;49.752;6.094;2022-12-22T02:53:30;1.70;;;0.60;;
13847;SDS011;6994;49.752;6.094;2022-12-22T02:56:15;2.45;;;0.50;;
13847;SDS011;6994;49.752;6.094;2022-12-22T02:59:01;2.20;;;0.47;;
13847;SDS011;6994;49.752;6.094;2022-12-22T03:01:46;1.10;;;0.37;;
13847;SDS011;6994;49.752;6.094;2022-12-22T03:04:31;2.40;;;0.52;;
13847;SDS011;6994;49.752;6.094;2022-12-22T03:07:16;1.75;;;0.40;;
13847;SDS011;6994;49.752;6.094;2022-12-22T03:10:02;0.20;;;0.13;;
13847;SDS011;6994;49.752;6.094;2022-12-22T03:12:47;1.60;;;0.50;;
13847;SDS011;6994;49.752;6.094;2022-12-22T03:15:32;2.30;;;0.50;;
13847;SDS011;6994;49.752;6.094;2022-12-22T03:18:17;0.70;;;0.20;;
13847;SDS011;6994;49.752;6.094;2022-12-22T03:21:03;0.40;;;0.40;;
13847;SDS011;6994;49.752;6.094;2022-12-22T03:23:48;0.98;;;0.32;;
13847;SDS011;6994;49.752;6.094;2022-12-22T03:26:33;0.40;;;0.30;;
13847;SDS011;6994;49.752;6.094;2022-12-22T03:29:01;0.47;;;0.20;;
13847;SDS011;6994;49.752;6.094;2022-12-22T03:31:29;0.30;;;0.10;;
13847;SDS011;6994;49.752;6.094;2022-12-22T03:33:57;0.65;;;0.13;;
13847;SDS011;6994;49.752;6.094;2022-12-22T03:36:24;1.73;;;0.17;;
13847;SDS011;6994;49.752;6.094;2022-12-22T03:38:51;1.42;;;0.10;;
13847;SDS011;6994;49.752;6.094;2022-12-22T03:41:19;0.62;;;0.17;;
13847;SDS011;6994;49.752;6.094;2022-12-22T03:44:04;0.10;;;0.10;;
13847;SDS011;6994;49.752;6.094;2022-12-22T03:46:49;0.43;;;0.30;;
13847;SDS011;6994;49.752;6.094;2022-12-22T03:49:16;1.23;;;0.22;;
13847;SDS011;6994;49.752;6.094;2022-12-22T03:51:45;0.37;;;0.20;;
13847;SDS011;6994;49.752;6.094;2022-12-22T03:54:12;0.93;;;0.25;;
13847;SDS011;6994;49.752;6.094;2022-12-22T03:56:38;0.98;;;0.22;;
13847;SDS011;6994;49.752;6.094;2022-12-22T03:59:05;0.50;;;0.20;;
13847;SDS011;6994;49.752;6.094;2022-12-22T04:01:33;0.32;;;0.17;;
13847;SDS011;6994;49.752;6.094;2022-12-22T04:03:59;0.65;;;0.28;;
13847;SDS011;6994;49.752;6.094;2022-12-22T04:06:27;0.80;;;0.20;;
13847;SDS011;6994;49.752;6.094;2022-12-22T04:08:55;2.00;;;0.28;;
13847;SDS011;6994;49.752;6.094;2022-12-22T04:11:23;1.27;;;0.30;;
13847;SDS011;6994;49.752;6.094;2022-12-22T04:14:08;2.30;;;0.50;;
13847;SDS011;6994;49.752;6.094;2022-12-22T04:16:36;1.95;;;0.40;;
13847;SDS011;6994;49.752;6.094;2022-12-22T04:19:04;1.65;;;0.40;;
13847;SDS011;6994;49.752;6.094;2022-12-22T04:21:32;2.58;;;0.60;;
13847;SDS011;6994;49.752;6.094;2022-12-22T04:23:59;2.33;;;0.40;;
13847;SDS011;6994;49.752;6.094;2022-12-22T04:26:26;2.45;;;0.60;;
13847;SDS011;6994;49.752;6.094;2022-12-22T04:28:53;2.65;;;0.40;;
13847;SDS011;6994;49.752;6.094;2022-12-22T04:31:21;4.47;;;0.57;;
13847;SDS011;6994;49.752;6.094;2022-12-22T04:33:48;1.30;;;0.30;;
13847;SDS011;6994;49.752;6.094;2022-12-22T04:36:15;1.62;;;0.40;;
13847;SDS011;6994;49.752;6.094;2022-12-22T04:38:42;2.50;;;0.40;;
13847;SDS011;6994;49.752;6.094;2022-12-22T04:41:09;1.12;;;0.40;;
13847;SDS011;6994;49.752;6.094;2022-12-22T04:43:37;0.80;;;0.15;;
13847;SDS011;6994;49.752;6.094;2022-12-22T04:46:05;0.98;;;0.20;;
13847;SDS011;6994;49.752;6.094;2022-12-22T04:48:33;0.82;;;0.22;;
13847;SDS011;6994;49.752;6.094;2022-12-22T04:51:01;1.40;;;0.62;;
13847;SDS011;6994;49.752;6.094;2022-12-22T04:53:29;1.67;;;0.22;;
13847;SDS011;6994;49.752;6.094;2022-12-22T04:55:59;1.52;;;1.02;;
13847;SDS011;6994;49.752;6.094;2022-12-22T04:58:25;0.93;;;0.30;;
13847;SDS011;6994;49.752;6.094;2022-12-22T05:00:52;2.75;;;0.45;;
13847;SDS011;6994;49.752;6.094;2022-12-22T05:03:19;4.20;;;0.88;;
13847;SDS011;6994;49.752;6.094;2022-12-22T05:05:47;2.20;;;0.90;;
13847;SDS011;6994;49.752;6.094;2022-12-22T05:08:14;2.05;;;0.40;;
13847;SDS011;6994;49.752;6.094;2022-12-22T05:10:42;1.60;;;0.50;;
13847;SDS011;6994;49.752;6.094;2022-12-22T05:13:10;1.67;;;0.65;;
13847;SDS011;6994;49.752;6.094;2022-12-22T05:15:38;4.60;;;0.88;;
13847;SDS011;6994;49.752;6.094;2022-12-22T05:18:06;2.62;;;0.40;;
13847;SDS011;6994;49.752;6.094;2022-12-22T05:20:34;4.15;;;0.90;;
13847;SDS011;6994;49.752;6.094;2022-12-22T05:23:02;2.78;;;0.98;;
13847;SDS011;6994;49.752;6.094;2022-12-22T05:25:30;3.47;;;0.70;;
13847;SDS011;6994;49.752;6.094;2022-12-22T05:27:58;6.03;;;1.10;;
13847;SDS011;6994;49.752;6.094;2022-12-22T05:30:26;3.97;;;0.95;;
13847;SDS011;6994;49.752;6.094;2022-12-22T05:32:53;2.08;;;0.50;;
13847;SDS011;6994;49.752;6.094;2022-12-22T05:35:20;1.12;;;0.77;;
13847;SDS011;6994;49.752;6.094;2022-12-22T05:37:48;5.80;;;1.10;;
13847;SDS011;6994;49.752;6.094;2022-12-22T05:40:16;9.27;;;1.05;;
13847;SDS011;6994;49.752;6.094;2022-12-22T05:42:44;5.90;;;1.00;;
13847;SDS011;6994;49.752;6.094;2022-12-22T05:45:16;5.78;;;1.15;;
13847;SDS011;6994;49.752;6.094;2022-12-22T05:47:43;2.33;;;0.80;;
13847;SDS011;6994;49.752;6.094;2022-12-22T05:50:11;3.53;;;0.90;;
13847;SDS011;6994;49.752;6.094;2022-12-22T05:52:38;3.42;;;1.02;;
13847;SDS011;6994;49.752;6.094;2022-12-22T05:55:06;7.43;;;1.25;;
13847;SDS011;6994;49.752;6.094;2022-12-22T05:57:33;3.97;;;0.82;;
13847;SDS011;6994;49.752;6.094;2022-12-22T06:00:02;5.05;;;1.20;;
13847;SDS011;6994;49.752;6.094;2022-12-22T06:02:28;5.57;;;1.02;;
13847;SDS011;6994;49.752;6.094;2022-12-22T06:04:56;4.20;;;0.93;;
13847;SDS011;6994;49.752;6.094;2022-12-22T06:07:24;3.95;;;0.70;;
13847;SDS011;6994;49.752;6.094;2022-12-22T06:09:52;4.97;;;1.00;;
13847;SDS011;6994;49.752;6.094;2022-12-22T06:12:20;5.97;;;0.88;;
13847;SDS011;6994;49.752;6.094;2022-12-22T06:14:48;2.22;;;0.52;;
13847;SDS011;6994;49.752;6.094;2022-12-22T06:17:15;6.45;;;1.12;;
13847;SDS011;6994;49.752;6.094;2022-12-22T06:19:42;3.37;;;0.50;;
13847;SDS011;6994;49.752;6.094;2022-12-22T06:22:09;6.12;;;0.98;;
13847;SDS011;6994;49.752;6.094;2022-12-22T06:24:36;7.10;;;1.65;;
13847;SDS011;6994;49.752;6.094;2022-12-22T06:27:04;5.30;;;1.42;;
13847;SDS011;6994;49.752;6.094;2022-12-22T06:29:32;4.07;;;0.90;;
13847;SDS011;6994;49.752;6.094;2022-12-22T06:32:00;1.98;;;0.32;;
13847;SDS011;6994;49.752;6.094;2022-12-22T06:34:27;3.10;;;0.70;;
13847;SDS011;6994;49.752;6.094;2022-12-22T06:36:54;4.28;;;0.75;;
13847;SDS011;6994;49.752;6.094;2022-12-22T06:39:22;7.85;;;1.10;;
13847;SDS011;6994;49.752;6.094;2022-12-22T06:41:50;5.50;;;1.25;;
13847;SDS011;6994;49.752;6.094;2022-12-22T06:44:36;7.47;;;0.68;;
13847;SDS011;6994;49.752;6.094;2022-12-22T06:47:03;2.42;;;0.90;;
13847;SDS011;6994;49.752;6.094;2022-12-22T06:49:30;1.80;;;0.80;;
13847;SDS011;6994;49.752;6.094;2022-12-22T06:51:57;10.45;;;1.42;;
13847;SDS011;6994;49.752;6.094;2022-12-22T06:54:24;4.53;;;1.27;;
13847;SDS011;6994;49.752;6.094;2022-12-22T06:56:52;5.85;;;1.23;;
13847;SDS011;6994;49.752;6.094;2022-12-22T06:59:19;6.43;;;1.95;;
13847;SDS011;6994;49.752;6.094;2022-12-22T07:01:46;7.18;;;1.62;;
13847;SDS011;6994;49.752;6.094;2022-12-22T07:04:13;5.18;;;1.12;;
13847;SDS011;6994;49.752;6.094;2022-12-22T07:06:40;9.70;;;1.52;;
13847;SDS011;6994;49.752;6.094;2022-12-22T07:09:08;5.32;;;1.12;;
13847;SDS011;6994;49.752;6.094;2022-12-22T07:11:36;8.98;;;1.45;;
13847;SDS011;6994;49.752;6.094;2022-12-22T07:14:04;5.80;;;1.00;;
13847;SDS011;6994;49.752;6.094;2022-12-22T07:16:31;7.62;;;2.03;;
13847;SDS011;6994;49.752;6.094;2022-12-22T07:18:58;8.15;;;1.58;;
13847;SDS011;6994;49.752;6.094;2022-12-22T07:21:26;7.22;;;1.20;;
13847;SDS011;6994;49.752;6.094;2022-12-22T07:23:53;14.20;;;2.67;;
13847;SDS011;6994;49.752;6.094;2022-12-22T07:26:20;3.83;;;0.80;;
13847;SDS011;6994;49.752;6.094;2022-12-22T07:28:48;4.35;;;1.33;;
13847;SDS011;6994;49.752;6.094;2022-12-22T07:31:15;6.05;;;1.00;;
13847;SDS011;6994;49.752;6.094;2022-12-22T07:33:42;7.85;;;1.65;;
13847;SDS011;6994;49.752;6.094;2022-12-22T07:36:10;4.75;;;1.17;;
13847;SDS011;6994;49.752;6.094;2022-12-22T07:38:37;4.93;;;1.15;;
13847;SDS011;6994;49.752;6.094;2022-12-22T07:41:04;2.55;;;0.95;;
13847;SDS011;6994;49.752;6.094;2022-12-22T07:43:31;4.37;;;0.98;;
13847;SDS011;6994;49.752;6.094;2022-12-22T07:45:59;2.95;;;1.15;;
13847;SDS011;6994;49.752;6.094;2022-12-22T07:48:27;2.40;;;0.77;;
13847;SDS011;6994;49.752;6.094;2022-12-22T07:51:12;3.92;;;0.50;;
13847;SDS011;6994;49.752;6.094;2022-12-22T07:53:39;3.83;;;0.95;;
13847;SDS011;6994;49.752;6.094;2022-12-22T07:56:07;3.58;;;0.70;;
13847;SDS011;6994;49.752;6.094;2022-12-22T07:58:34;6.78;;;0.90;;
13847;SDS011;6994;49.752;6.094;2022-12-22T08:01:01;5.55;;;1.10;;
13847;SDS011;6994;49.752;6.094;2022-12-22T08:03:29;3.78;;;0.65;;
13847;SDS011;6994;49.752;6.094;2022-12-22T08:05:57;3.80;;;1.45;;
13847;SDS011;6994;49.752;6.094;2022-12-22T08:08:25;1.77;;;0.60;;
13847;SDS011;6994;49.752;6.094;2022-12-22T08:10:52;5.10;;;1.45;;
13847;SDS011;6994;49.752;6.094;2022-12-22T08:13:19;3.25;;;1.10;;
13847;SDS011;6994;49.752;6.094;2022-12-22T08:15:47;3.87;;;1.10;;
13847;SDS011;6994;49.752;6.094;2022-12-22T08:18:14;1.92;;;0.75;;
13847;SDS011;6994;49.752;6.094;2022-12-22T08:20:46;5.93;;;1.55;;
13847;SDS011;6994;49.752;6.094;2022-12-22T08:23:08;7.43;;;1.08;;
13847;SDS011;6994;49.752;6.094;2022-12-22T08:25:35;9.00;;;1.45;;
13847;SDS011;6994;49.752;6.094;2022-12-22T08:28:03;9.80;;;1.40;;
13847;SDS011;6994;49.752;6.094;2022-12-22T08:30:30;4.53;;;1.10;;
13847;SDS011;6994;49.752;6.094;2022-12-22T08:32:57;4.90;;;0.65;;
13847;SDS011;6994;49.752;6.094;2022-12-22T08:35:24;2.67;;;0.70;;
13847;SDS011;6994;49.752;6.094;2022-12-22T08:37:51;4.30;;;1.10;;
13847;SDS011;6994;49.752;6.094;2022-12-22T08:40:22;9.02;;;1.55;;
13847;SDS011;6994;49.752;6.094;2022-12-22T08:42:49;3.10;;;0.70;;
13847;SDS011;6994;49.752;6.094;2022-12-22T08:45:15;6.50;;;1.65;;
13847;SDS011;6994;49.752;6.094;2022-12-22T08:47:43;3.30;;;0.90;;
13847;SDS011;6994;49.752;6.094;2022-12-22T08:50:10;8.75;;;1.20;;
13847;SDS011;6994;49.752;6.094;2022-12-22T08:52:37;3.40;;;0.75;;
13847;SDS011;6994;49.752;6.094;2022-12-22T08:55:04;5.20;;;1.12;;
13847;SDS011;6994;49.752;6.094;2022-12-22T08:57:32;3.62;;;0.50;;
13847;SDS011;6994;49.752;6.094;2022-12-22T08:59:59;3.30;;;0.82;;
13847;SDS011;6994;49.752;6.094;2022-12-22T09:02:27;2.50;;;0.75;;
13847;SDS011;6994;49.752;6.094;2022-12-22T09:04:55;3.22;;;0.60;;
13847;SDS011;6994;49.752;6.094;2022-12-22T09:07:23;1.02;;;0.45;;
13847;SDS011;6994;49.752;6.094;2022-12-22T09:09:50;0.75;;;0.20;;
13847;SDS011;6994;49.752;6.094;2022-12-22T09:12:17;0.57;;;0.40;;
13847;SDS011;6994;49.752;6.094;2022-12-22T09:14:44;0.77;;;0.17;;
13847;SDS011;6994;49.752;6.094;2022-12-22T09:17:11;0.28;;;0.10;;
13847;SDS011;6994;49.752;6.094;2022-12-22T09:19:39;1.45;;;0.37;;
13847;SDS011;6994;49.752;6.094;2022-12-22T09:22:06;0.55;;;0.25;;
13847;SDS011;6994;49.752;6.094;2022-12-22T09:24:33;2.03;;;0.30;;
13847;SDS011;6994;49.752;6.094;2022-12-22T09:27:00;0.20;;;0.20;;
13847;SDS011;6994;49.752;6.094;2022-12-22T09:29:28;0.57;;;0.25;;
13847;SDS011;6994;49.752;6.094;2022-12-22T09:31:55;5.68;;;0.55;;
13847;SDS011;6994;49.752;6.094;2022-12-22T09:34:23;1.35;;;0.10;;
13847;SDS011;6994;49.752;6.094;2022-12-22T09:36:50;1.08;;;0.20;;
13847;SDS011;6994;49.752;6.094;2022-12-22T09:39:17;0.05;;;0.05;;
13847;SDS011;6994;49.752;6.094;2022-12-22T09:41:48;1.23;;;0.17;;
13847;SDS011;6994;49.752;6.094;2022-12-22T09:47:01;1.33;;;0.30;;
13847;SDS011;6994;49.752;6.094;2022-12-22T09:49:27;0.52;;;0.43;;
13847;SDS011;6994;49.752;6.094;2022-12-22T09:52:00;0.73;;;0.30;;
13847;SDS011;6994;49.752;6.094;2022-12-22T09:54:25;2.62;;;0.40;;
13847;SDS011;6994;49.752;6.094;2022-12-22T09:56:52;0.30;;;0.05;;
13847;SDS011;6994;49.752;6.094;2022-12-22T09:59:20;0.20;;;0.10;;
13847;SDS011;6994;49.752;6.094;2022-12-22T10:01:52;0.22;;;0.17;;
13847;SDS011;6994;49.752;6.094;2022-12-22T10:04:37;0.10;;;0.10;;
13847;SDS011;6994;49.752;6.094;2022-12-22T10:07:10;0.28;;;0.17;;
13847;SDS011;6994;49.752;6.094;2022-12-22T10:09:34;1.00;;;0.50;;
13847;SDS011;6994;49.752;6.094;2022-12-22T10:12:00;0.25;;;0.25;;
13847;SDS011;6994;49.752;6.094;2022-12-22T10:14:37;0.62;;;0.17;;
13847;SDS011;6994;49.752;6.094;2022-12-22T10:19:49;0.85;;;0.22;;
13847;SDS011;6994;49.752;6.094;2022-12-22T10:22:26;0.60;;;0.22;;
13847;SDS011;6994;49.752;6.094;2022-12-22T10:24:52;1.27;;;0.20;;
13847;SDS011;6994;49.752;6.094;2022-12-22T10:27:20;0.22;;;0.10;;
13847;SDS011;6994;49.752;6.094;2022-12-22T10:29:50;1.70;;;0.40;;
13847;SDS011;6994;49.752;6.094;2022-12-22T10:32:17;1.75;;;0.30;;
13847;SDS011;6994;49.752;6.094;2022-12-22T10:35:00;0.68;;;0.20;;
13847;SDS011;6994;49.752;6.094;2022-12-22T10:37:36;0.63;;;0.33;;
13847;SDS011;6994;49.752;6.094;2022-12-22T10:40:14;0.75;;;0.30;;
13847;SDS011;6994;49.752;6.094;2022-12-22T10:42:51;0.60;;;0.30;;
13847;SDS011;6994;49.752;6.094;2022-12-22T10:45:21;0.47;;;0.17;;
13847;SDS011;6994;49.752;6.094;2022-12-22T10:47:48;0.20;;;0.20;;
13847;SDS011;6994;49.752;6.094;2022-12-22T10:50:15;0.43;;;0.30;;
13847;SDS011;6994;49.752;6.094;2022-12-22T10:52:48;1.00;;;0.30;;
13847;SDS011;6994;49.752;6.094;2022-12-22T10:57:42;1.50;;;0.35;;
13847;SDS011;6994;49.752;6.094;2022-12-22T11:00:28;5.18;;;0.43;;
13847;SDS011;6994;49.752;6.094;2022-12-22T11:02:55;0.47;;;0.20;;
13847;SDS011;6994;49.752;6.094;2022-12-22T11:05:22;0.47;;;0.20;;
13847;SDS011;6994;49.752;6.094;2022-12-22T11:07:49;2.47;;;0.50;;
13847;SDS011;6994;49.752;6.094;2022-12-22T11:10:24;1.83;;;0.37;;
13847;SDS011;6994;49.752;6.094;2022-12-22T11:19:02;1.10;;;0.30;;
13847;SDS011;6994;49.752;6.094;2022-12-22T11:21:56;1.85;;;0.30;;
13847;SDS011;6994;49.752;6.094;2022-12-22T11:24:24;0.20;;;0.20;;
13847;SDS011;6994;49.752;6.094;2022-12-22T11:29:36;0.93;;;0.50;;
13847;SDS011;6994;49.752;6.094;2022-12-22T11:37:28;1.30;;;0.22;;
13847;SDS011;6994;49.752;6.094;2022-12-22T11:45:36;0.90;;;0.20;;
13847;SDS011;6994;49.752;6.094;2022-12-22T11:48:06;0.52;;;0.25;;
13847;SDS011;6994;49.752;6.094;2022-12-22T11:50:34;0.82;;;0.40;;
13847;SDS011;6994;49.752;6.094;2022-12-22T11:56:11;0.60;;;0.37;;
13847;SDS011;6994;49.752;6.094;2022-12-22T12:01:39;0.17;;;0.17;;
13847;SDS011;6994;49.752;6.094;2022-12-22T12:04:19;0.47;;;0.30;;
13847;SDS011;6994;49.752;6.094;2022-12-22T12:06:54;0.68;;;0.40;;
13847;SDS011;6994;49.752;6.094;2022-12-22T12:09:30;0.30;;;0.20;;
13847;SDS011;6994;49.752;6.094;2022-12-22T12:14:35;0.30;;;0.20;;
13847;SDS011;6994;49.752;6.094;2022-12-22T12:17:10;0.77;;;0.32;;
13847;SDS011;6994;49.752;6.094;2022-12-22T12:19:43;1.23;;;0.17;;
13847;SDS011;6994;49.752;6.094;2022-12-22T12:22:17;0.45;;;0.22;;
13847;SDS011;6994;49.752;6.094;2022-12-22T12:24:55;0.40;;;0.35;;
13847;SDS011;6994;49.752;6.094;2022-12-22T12:27:35;0.20;;;0.15;;
13847;SDS011;6994;49.752;6.094;2022-12-22T12:30:13;0.65;;;0.35;;
13847;SDS011;6994;49.752;6.094;2022-12-22T12:32:45;1.98;;;0.43;;
13847;SDS011;6994;49.752;6.094;2022-12-22T12:38:06;0.20;;;0.20;;
13847;SDS011;6994;49.752;6.094;2022-12-22T12:40:33;1.08;;;0.20;;
13847;SDS011;6994;49.752;6.094;2022-12-22T12:43:08;0.90;;;0.30;;
13847;SDS011;6994;49.752;6.094;2022-12-22T12:45:36;0.70;;;0.30;;
13847;SDS011;6994;49.752;6.094;2022-12-22T12:50:57;0.45;;;0.30;;
13847;SDS011;6994;49.752;6.094;2022-12-22T12:53:21;0.20;;;0.10;;
13847;SDS011;6994;49.752;6.094;2022-12-22T13:01:04;0.47;;;0.30;;
13847;SDS011;6994;49.752;6.094;2022-12-22T13:03:49;0.20;;;0.10;;
13847;SDS011;6994;49.752;6.094;2022-12-22T13:09:21;0.37;;;0.30;;
13847;SDS011;6994;49.752;6.094;2022-12-22T13:11:44;0.55;;;0.40;;
13847;SDS011;6994;49.752;6.094;2022-12-22T13:14:11;0.35;;;0.35;;
13847;SDS011;6994;49.752;6.094;2022-12-22T13:16:38;1.37;;;0.68;;
13847;SDS011;6994;49.752;6.094;2022-12-22T13:19:17;1.27;;;0.32;;
13847;SDS011;6994;49.752;6.094;2022-12-22T13:21:42;1.40;;;0.30;;
13847;SDS011;6994;49.752;6.094;2022-12-22T13:26:45;0.10;;;0.10;;
13847;SDS011;6994;49.752;6.094;2022-12-22T13:32:48;0.70;;;0.20;;
13847;SDS011;6994;49.752;6.094;2022-12-22T13:37:23;1.55;;;0.20;;
13847;SDS011;6994;49.752;6.094;2022-12-22T13:40:08;2.33;;;0.30;;
13847;SDS011;6994;49.752;6.094;2022-12-22T13:42:41;0.60;;;0.20;;
13847;SDS011;6994;49.752;6.094;2022-12-22T13:47:46;2.20;;;0.40;;
13847;SDS011;6994;49.752;6.094;2022-12-22T13:50:19;0.70;;;0.40;;
13847;SDS011;6994;49.752;6.094;2022-12-22T13:52:42;2.08;;;0.40;;
13847;SDS011;6994;49.752;6.094;2022-12-22T13:55:17;1.10;;;0.50;;
13847;SDS011;6994;49.752;6.094;2022-12-22T13:57:43;0.40;;;0.25;;
13847;SDS011;6994;49.752;6.094;2022-12-22T14:00:17;1.17;;;0.70;;
13847;SDS011;6994;49.752;6.094;2022-12-22T14:02:46;1.17;;;0.40;;
13847;SDS011;6994;49.752;6.094;2022-12-22T14:05:13;0.95;;;0.80;;
13847;SDS011;6994;49.752;6.094;2022-12-22T14:08:04;1.70;;;0.65;;
13847;SDS011;6994;49.752;6.094;2022-12-22T14:10:42;1.92;;;0.60;;
13847;SDS011;6994;49.752;6.094;2022-12-22T14:13:15;1.12;;;0.55;;
13847;SDS011;6994;49.752;6.094;2022-12-22T14:15:42;1.77;;;0.80;;
13847;SDS011;6994;49.752;6.094;2022-12-22T14:18:16;0.95;;;0.60;;
13847;SDS011;6994;49.752;6.094;2022-12-22T14:20:43;1.40;;;0.70;;
13847;SDS011;6994;49.752;6.094;2022-12-22T14:23:11;2.03;;;0.85;;
13847;SDS011;6994;49.752;6.094;2022-12-22T14:25:43;2.55;;;1.15;;
13847;SDS011;6994;49.752;6.094;2022-12-22T14:30:50;9.43;;;2.20;;
13847;SDS011;6994;49.752;6.094;2022-12-22T14:33:24;11.73;;;2.37;;
13847;SDS011;6994;49.752;6.094;2022-12-22T14:35:43;11.07;;;2.15;;
13847;SDS011;6994;49.752;6.094;2022-12-22T14:38:24;17.50;;;2.95;;
13847;SDS011;6994;49.752;6.094;2022-12-22T14:40:52;14.90;;;2.55;;
13847;SDS011;6994;49.752;6.094;2022-12-22T14:45:46;11.85;;;2.40;;
13847;SDS011;6994;49.752;6.094;2022-12-22T14:48:33;19.27;;;4.22;;
13847;SDS011;6994;49.752;6.094;2022-12-22T14:50:55;12.45;;;2.60;;
13847;SDS011;6994;49.752;6.094;2022-12-22T14:53:23;18.08;;;2.75;;
13847;SDS011;6994;49.752;6.094;2022-12-22T14:55:50;22.52;;;3.15;;
13847;SDS011;6994;49.752;6.094;2022-12-22T14:58:18;26.10;;;4.60;;
13847;SDS011;6994;49.752;6.094;2022-12-22T15:00:47;19.67;;;3.17;;
13847;SDS011;6994;49.752;6.094;2022-12-22T15:03:33;26.33;;;5.20;;
13847;SDS011;6994;49.752;6.094;2022-12-22T15:09:04;22.70;;;3.58;;
13847;SDS011;6994;49.752;6.094;2022-12-22T15:11:33;27.17;;;4.87;;
13847;SDS011;6994;49.752;6.094;2022-12-22T15:14:00;36.70;;;5.30;;
13847;SDS011;6994;49.752;6.094;2022-12-22T15:16:27;28.42;;;4.37;;
13847;SDS011;6994;49.752;6.094;2022-12-22T15:18:54;25.65;;;4.62;;
13847;SDS011;6994;49.752;6.094;2022-12-22T15:21:21;26.75;;;5.18;;
13847;SDS011;6994;49.752;6.094;2022-12-22T15:23:49;32.17;;;7.37;;
13847;SDS011;6994;49.752;6.094;2022-12-22T15:26:17;33.72;;;5.43;;
13847;SDS011;6994;49.752;6.094;2022-12-22T15:28:44;29.40;;;5.10;;
13847;SDS011;6994;49.752;6.094;2022-12-22T15:31:13;28.02;;;5.90;;
13847;SDS011;6994;49.752;6.094;2022-12-22T15:33:40;32.00;;;6.05;;
13847;SDS011;6994;49.752;6.094;2022-12-22T15:36:11;24.50;;;5.07;;
13847;SDS011;6994;49.752;6.094;2022-12-22T15:38:37;36.13;;;5.40;;
13847;SDS011;6994;49.752;6.094;2022-12-22T15:41:05;30.30;;;6.32;;
13847;SDS011;6994;49.752;6.094;2022-12-22T15:43:31;37.33;;;6.25;;
13847;SDS011;6994;49.752;6.094;2022-12-22T15:45:59;33.03;;;7.10;;
13847;SDS011;6994;49.752;6.094;2022-12-22T15:48:27;33.58;;;5.35;;
13847;SDS011;6994;49.752;6.094;2022-12-22T15:50:53;40.45;;;9.13;;
13847;SDS011;6994;49.752;6.094;2022-12-22T15:53:20;37.28;;;7.87;;
13847;SDS011;6994;49.752;6.094;2022-12-22T15:55:49;36.63;;;7.93;;
13847;SDS011;6994;49.752;6.094;2022-12-22T15:58:18;36.03;;;7.40;;
13847;SDS011;6994;49.752;6.094;2022-12-22T16:00:45;23.30;;;5.12;;
13847;SDS011;6994;49.752;6.094;2022-12-22T16:03:13;29.77;;;6.12;;
13847;SDS011;6994;49.752;6.094;2022-12-22T16:05:40;47.45;;;8.82;;
13847;SDS011;6994;49.752;6.094;2022-12-22T16:08:14;28.77;;;6.43;;
13847;SDS011;6994;49.752;6.094;2022-12-22T16:10:41;48.15;;;9.57;;
13847;SDS011;6994;49.752;6.094;2022-12-22T16:13:09;41.92;;;6.37;;
13847;SDS011;6994;49.752;6.094;2022-12-22T16:15:35;46.13;;;7.20;;
13847;SDS011;6994;49.752;6.094;2022-12-22T16:18:02;35.95;;;6.43;;
13847;SDS011;6994;49.752;6.094;2022-12-22T16:20:32;34.08;;;7.12;;
13847;SDS011;6994;49.752;6.094;2022-12-22T16:22:58;34.67;;;6.93;;
13847;SDS011;6994;49.752;6.094;2022-12-22T16:25:28;38.22;;;7.47;;
13847;SDS011;6994;49.752;6.094;2022-12-22T16:27:53;45.53;;;7.90;;
13847;SDS011;6994;49.752;6.094;2022-12-22T16:30:22;36.05;;;7.75;;
13847;SDS011;6994;49.752;6.094;2022-12-22T16:32:48;40.35;;;8.35;;
13847;SDS011;6994;49.752;6.094;2022-12-22T16:35:19;34.92;;;8.00;;
13847;SDS011;6994;49.752;6.094;2022-12-22T16:37:46;35.90;;;8.23;;
13847;SDS011;6994;49.752;6.094;2022-12-22T16:40:13;37.88;;;6.15;;
13847;SDS011;6994;49.752;6.094;2022-12-22T16:42:41;29.92;;;6.32;;
13847;SDS011;6994;49.752;6.094;2022-12-22T16:45:13;46.33;;;6.82;;
13847;SDS011;6994;49.752;6.094;2022-12-22T16:47:40;23.73;;;4.85;;
13847;SDS011;6994;49.752;6.094;2022-12-22T16:50:18;39.72;;;7.68;;
13847;SDS011;6994;49.752;6.094;2022-12-22T16:52:44;36.50;;;5.35;;